Main page
METAR-TAF:

METAR-TAF

Airports :

Velana International Airport

Malé, Maldives

latitude: 04-12N, longitude: 073-32E, elevation: 2 m

Current weather observation

The report was made 1 hour and 19 minutes ago, at 18:00 UTC
Wind 4 kt from the South/Southwest
Temperature 29°C
Humidity 79%
Pressure 1012 hPa
Visibility 10 km or more
Few clouds at a height of 1800 ft
Broken clouds at a height of 28000 ft

METAR: VRMM 181800Z 20004KT 9999 FEW018 BKN280 29/25 Q1012 NOSIG

Time: 00:19 (19:19 UTC)

Forecast

The report was made 2 hours and 19 minutes ago, at 17:00 UTC
Forecast valid from 18 at 18 UTC to 19 at 24 UTC
Wind 7 kt from the South/Southwest
Visibility 10 km or more
Few clouds at a height of 1800 ft, Towering cumulus.
Temporary
from 18 at 18 UTC to 18 at 24 UTC
Few clouds at a height of 1900 ft, Cumulonimbus.

TAF: VRMM 181700Z 1818/1924 20007KT 9999 FEW018TCU TEMPO 1818/1824 FEW019CB

Weather observations and forecasts of more than 4000 airports (METAR and TAF reports).

The available stations are represented by yellow and red dots on the map.

Hover mouse over dot to see the name of the station.

Then click to see weather observations and forecasts.

To change the map : click on the green buttons with a black cross to zoom in, on the green button with a dash to zoom out, or on the green arrows for adjacent maps.


METAR-TAF: